sensor_id;sensor_type;location;lat;lon;timestamp;P1;durP1;ratioP1;P2;durP2;ratioP2
20445;SDS011;10382;49.140;9.234;2024-03-07T00:00:06;49.95;;;27.63;;
20445;SDS011;10382;49.140;9.234;2024-03-07T00:02:39;52.97;;;27.93;;
20445;SDS011;10382;49.140;9.234;2024-03-07T00:05:08;42.60;;;25.63;;
20445;SDS011;10382;49.140;9.234;2024-03-07T00:07:35;47.67;;;26.47;;
20445;SDS011;10382;49.140;9.234;2024-03-07T00:10:02;47.15;;;27.80;;
20445;SDS011;10382;49.140;9.234;2024-03-07T00:12:32;42.03;;;27.23;;
20445;SDS011;10382;49.140;9.234;2024-03-07T00:15:00;48.83;;;27.20;;
20445;SDS011;10382;49.140;9.234;2024-03-07T00:17:27;47.47;;;26.90;;
20445;SDS011;10382;49.140;9.234;2024-03-07T00:19:54;46.23;;;27.07;;
20445;SDS011;10382;49.140;9.234;2024-03-07T00:22:22;44.60;;;28.37;;
20445;SDS011;10382;49.140;9.234;2024-03-07T00:24:52;44.67;;;26.07;;
20445;SDS011;10382;49.140;9.234;2024-03-07T00:27:18;42.77;;;25.67;;
20445;SDS011;10382;49.140;9.234;2024-03-07T00:29:46;41.47;;;24.77;;
20445;SDS011;10382;49.140;9.234;2024-03-07T00:32:18;42.37;;;26.83;;
20445;SDS011;10382;49.140;9.234;2024-03-07T00:34:45;46.70;;;25.83;;
20445;SDS011;10382;49.140;9.234;2024-03-07T00:37:12;53.20;;;28.10;;
20445;SDS011;10382;49.140;9.234;2024-03-07T00:39:40;50.47;;;26.07;;
20445;SDS011;10382;49.140;9.234;2024-03-07T00:42:07;49.33;;;25.03;;
20445;SDS011;10382;49.140;9.234;2024-03-07T00:44:34;47.70;;;26.50;;
20445;SDS011;10382;49.140;9.234;2024-03-07T00:47:01;47.27;;;25.20;;
20445;SDS011;10382;49.140;9.234;2024-03-07T00:49:29;42.83;;;24.87;;
20445;SDS011;10382;49.140;9.234;2024-03-07T00:51:57;43.27;;;25.40;;
20445;SDS011;10382;49.140;9.234;2024-03-07T00:54:24;46.80;;;25.27;;
20445;SDS011;10382;49.140;9.234;2024-03-07T00:56:52;46.33;;;26.97;;
20445;SDS011;10382;49.140;9.234;2024-03-07T00:59:20;44.63;;;26.60;;
20445;SDS011;10382;49.140;9.234;2024-03-07T01:01:47;38.47;;;25.23;;
20445;SDS011;10382;49.140;9.234;2024-03-07T01:04:15;42.10;;;24.37;;
20445;SDS011;10382;49.140;9.234;2024-03-07T01:06:42;51.13;;;25.70;;
20445;SDS011;10382;49.140;9.234;2024-03-07T01:09:09;43.97;;;24.17;;
20445;SDS011;10382;49.140;9.234;2024-03-07T01:11:40;39.40;;;24.43;;
20445;SDS011;10382;49.140;9.234;2024-03-07T01:14:08;42.37;;;24.87;;
20445;SDS011;10382;49.140;9.234;2024-03-07T01:16:35;43.47;;;26.10;;
20445;SDS011;10382;49.140;9.234;2024-03-07T01:19:02;41.07;;;24.03;;
20445;SDS011;10382;49.140;9.234;2024-03-07T01:21:31;45.33;;;23.30;;
20445;SDS011;10382;49.140;9.234;2024-03-07T01:23:58;38.40;;;22.90;;
20445;SDS011;10382;49.140;9.234;2024-03-07T01:26:25;51.97;;;26.07;;
20445;SDS011;10382;49.140;9.234;2024-03-07T01:28:52;38.33;;;23.33;;
20445;SDS011;10382;49.140;9.234;2024-03-07T01:31:21;39.70;;;23.57;;
20445;SDS011;10382;49.140;9.234;2024-03-07T01:33:48;45.10;;;23.63;;
20445;SDS011;10382;49.140;9.234;2024-03-07T01:36:15;39.60;;;23.20;;
20445;SDS011;10382;49.140;9.234;2024-03-07T01:38:42;41.27;;;24.00;;
20445;SDS011;10382;49.140;9.234;2024-03-07T01:41:09;44.43;;;25.13;;
20445;SDS011;10382;49.140;9.234;2024-03-07T01:43:35;40.40;;;24.70;;
20445;SDS011;10382;49.140;9.234;2024-03-07T01:46:02;42.80;;;25.17;;
20445;SDS011;10382;49.140;9.234;2024-03-07T01:48:31;34.50;;;22.83;;
20445;SDS011;10382;49.140;9.234;2024-03-07T01:50:58;44.17;;;26.37;;
20445;SDS011;10382;49.140;9.234;2024-03-07T01:53:26;41.20;;;24.80;;
20445;SDS011;10382;49.140;9.234;2024-03-07T01:55:55;41.70;;;24.23;;
20445;SDS011;10382;49.140;9.234;2024-03-07T01:58:22;36.30;;;21.93;;
20445;SDS011;10382;49.140;9.234;2024-03-07T02:00:50;35.53;;;22.13;;
20445;SDS011;10382;49.140;9.234;2024-03-07T02:03:17;47.57;;;26.03;;
20445;SDS011;10382;49.140;9.234;2024-03-07T02:05:46;48.33;;;25.47;;
20445;SDS011;10382;49.140;9.234;2024-03-07T02:08:13;39.80;;;23.90;;
20445;SDS011;10382;49.140;9.234;2024-03-07T02:10:40;41.93;;;23.83;;
20445;SDS011;10382;49.140;9.234;2024-03-07T02:13:07;34.90;;;22.07;;
20445;SDS011;10382;49.140;9.234;2024-03-07T02:15:34;44.03;;;25.57;;
20445;SDS011;10382;49.140;9.234;2024-03-07T02:18:01;39.63;;;22.90;;
20445;SDS011;10382;49.140;9.234;2024-03-07T02:20:28;43.33;;;24.47;;
20445;SDS011;10382;49.140;9.234;2024-03-07T02:22:56;42.50;;;27.27;;
20445;SDS011;10382;49.140;9.234;2024-03-07T02:25:23;45.70;;;24.50;;
20445;SDS011;10382;49.140;9.234;2024-03-07T02:27:50;42.83;;;24.83;;
20445;SDS011;10382;49.140;9.234;2024-03-07T02:30:17;45.83;;;27.40;;
20445;SDS011;10382;49.140;9.234;2024-03-07T02:32:45;42.57;;;24.47;;
20445;SDS011;10382;49.140;9.234;2024-03-07T02:35:17;47.60;;;26.10;;
20445;SDS011;10382;49.140;9.234;2024-03-07T02:37:44;44.77;;;24.33;;
20445;SDS011;10382;49.140;9.234;2024-03-07T02:40:13;45.70;;;26.70;;
20445;SDS011;10382;49.140;9.234;2024-03-07T02:42:41;42.03;;;24.77;;
20445;SDS011;10382;49.140;9.234;2024-03-07T02:45:08;41.10;;;24.97;;
20445;SDS011;10382;49.140;9.234;2024-03-07T02:47:39;48.17;;;27.07;;
20445;SDS011;10382;49.140;9.234;2024-03-07T02:50:09;55.00;;;29.33;;
20445;SDS011;10382;49.140;9.234;2024-03-07T02:52:36;49.88;;;28.42;;
20445;SDS011;10382;49.140;9.234;2024-03-07T02:55:04;57.70;;;29.07;;
20445;SDS011;10382;49.140;9.234;2024-03-07T02:57:36;47.77;;;27.23;;
20445;SDS011;10382;49.140;9.234;2024-03-07T03:00:04;60.00;;;29.80;;
20445;SDS011;10382;49.140;9.234;2024-03-07T03:02:38;47.67;;;26.65;;
20445;SDS011;10382;49.140;9.234;2024-03-07T03:05:06;42.35;;;24.67;;
20445;SDS011;10382;49.140;9.234;2024-03-07T03:07:37;51.90;;;26.60;;
20445;SDS011;10382;49.140;9.234;2024-03-07T03:10:04;47.35;;;26.75;;
20445;SDS011;10382;49.140;9.234;2024-03-07T03:12:34;50.43;;;26.67;;
20445;SDS011;10382;49.140;9.234;2024-03-07T03:15:03;41.25;;;23.42;;
20445;SDS011;10382;49.140;9.234;2024-03-07T03:17:30;43.90;;;26.13;;
20445;SDS011;10382;49.140;9.234;2024-03-07T03:19:57;44.90;;;26.23;;
20445;SDS011;10382;49.140;9.234;2024-03-07T03:22:24;50.58;;;26.98;;
20445;SDS011;10382;49.140;9.234;2024-03-07T03:24:53;48.13;;;25.77;;
20445;SDS011;10382;49.140;9.234;2024-03-07T03:27:20;47.10;;;24.65;;
20445;SDS011;10382;49.140;9.234;2024-03-07T03:29:49;59.67;;;30.42;;
20445;SDS011;10382;49.140;9.234;2024-03-07T03:32:16;45.45;;;25.02;;
20445;SDS011;10382;49.140;9.234;2024-03-07T03:34:43;40.78;;;22.63;;
20445;SDS011;10382;49.140;9.234;2024-03-07T03:37:10;43.97;;;23.70;;
20445;SDS011;10382;49.140;9.234;2024-03-07T03:39:37;43.20;;;25.30;;
20445;SDS011;10382;49.140;9.234;2024-03-07T03:42:04;38.28;;;24.55;;
20445;SDS011;10382;49.140;9.234;2024-03-07T03:44:31;37.15;;;21.63;;
20445;SDS011;10382;49.140;9.234;2024-03-07T03:47:01;40.50;;;23.70;;
20445;SDS011;10382;49.140;9.234;2024-03-07T03:49:29;43.38;;;24.33;;
20445;SDS011;10382;49.140;9.234;2024-03-07T03:51:56;43.35;;;22.92;;
20445;SDS011;10382;49.140;9.234;2024-03-07T03:54:24;51.90;;;28.17;;
20445;SDS011;10382;49.140;9.234;2024-03-07T03:56:50;43.55;;;25.02;;
20445;SDS011;10382;49.140;9.234;2024-03-07T03:59:18;45.85;;;24.70;;
20445;SDS011;10382;49.140;9.234;2024-03-07T04:01:44;49.45;;;26.55;;
20445;SDS011;10382;49.140;9.234;2024-03-07T04:04:13;48.17;;;23.70;;
20445;SDS011;10382;49.140;9.234;2024-03-07T04:06:39;55.22;;;25.23;;
20445;SDS011;10382;49.140;9.234;2024-03-07T04:09:06;50.15;;;26.15;;
20445;SDS011;10382;49.140;9.234;2024-03-07T04:11:33;41.42;;;24.13;;
20445;SDS011;10382;49.140;9.234;2024-03-07T04:14:00;38.15;;;22.65;;
20445;SDS011;10382;49.140;9.234;2024-03-07T04:16:27;48.30;;;27.48;;
20445;SDS011;10382;49.140;9.234;2024-03-07T04:18:54;42.75;;;25.08;;
20445;SDS011;10382;49.140;9.234;2024-03-07T04:21:22;47.67;;;25.63;;
20445;SDS011;10382;49.140;9.234;2024-03-07T04:23:50;42.80;;;24.38;;
20445;SDS011;10382;49.140;9.234;2024-03-07T04:26:17;49.00;;;25.88;;
20445;SDS011;10382;49.140;9.234;2024-03-07T04:28:44;52.10;;;27.73;;
20445;SDS011;10382;49.140;9.234;2024-03-07T04:31:11;55.58;;;27.63;;
20445;SDS011;10382;49.140;9.234;2024-03-07T04:33:38;50.42;;;26.75;;
20445;SDS011;10382;49.140;9.234;2024-03-07T04:36:05;54.83;;;29.90;;
20445;SDS011;10382;49.140;9.234;2024-03-07T04:38:35;55.45;;;28.52;;
20445;SDS011;10382;49.140;9.234;2024-03-07T04:41:02;51.15;;;27.30;;
20445;SDS011;10382;49.140;9.234;2024-03-07T04:43:30;47.85;;;28.33;;
20445;SDS011;10382;49.140;9.234;2024-03-07T04:45:58;52.28;;;27.35;;
20445;SDS011;10382;49.140;9.234;2024-03-07T04:48:25;48.72;;;26.92;;
20445;SDS011;10382;49.140;9.234;2024-03-07T04:50:52;48.65;;;25.60;;
20445;SDS011;10382;49.140;9.234;2024-03-07T04:53:18;53.45;;;27.20;;
20445;SDS011;10382;49.140;9.234;2024-03-07T04:55:47;44.13;;;24.20;;
20445;SDS011;10382;49.140;9.234;2024-03-07T04:58:14;56.10;;;27.98;;
20445;SDS011;10382;49.140;9.234;2024-03-07T05:00:40;51.38;;;24.70;;
20445;SDS011;10382;49.140;9.234;2024-03-07T05:03:07;46.95;;;26.17;;
20445;SDS011;10382;49.140;9.234;2024-03-07T05:05:36;46.80;;;25.83;;
20445;SDS011;10382;49.140;9.234;2024-03-07T05:08:03;63.10;;;26.33;;
20445;SDS011;10382;49.140;9.234;2024-03-07T05:10:30;45.13;;;25.05;;
20445;SDS011;10382;49.140;9.234;2024-03-07T05:12:58;51.47;;;25.15;;
20445;SDS011;10382;49.140;9.234;2024-03-07T05:15:25;52.50;;;25.15;;
20445;SDS011;10382;49.140;9.234;2024-03-07T05:17:52;54.60;;;25.70;;
20445;SDS011;10382;49.140;9.234;2024-03-07T05:20:21;44.90;;;24.73;;
20445;SDS011;10382;49.140;9.234;2024-03-07T05:22:48;59.17;;;28.58;;
20445;SDS011;10382;49.140;9.234;2024-03-07T05:25:16;49.05;;;26.20;;
20445;SDS011;10382;49.140;9.234;2024-03-07T05:27:44;49.88;;;25.95;;
20445;SDS011;10382;49.140;9.234;2024-03-07T05:30:13;48.58;;;26.77;;
20445;SDS011;10382;49.140;9.234;2024-03-07T05:32:40;54.88;;;26.85;;
20445;SDS011;10382;49.140;9.234;2024-03-07T05:35:07;46.63;;;26.42;;
20445;SDS011;10382;49.140;9.234;2024-03-07T05:37:36;50.25;;;24.90;;
20445;SDS011;10382;49.140;9.234;2024-03-07T05:40:07;55.63;;;26.58;;
20445;SDS011;10382;49.140;9.234;2024-03-07T05:42:34;47.80;;;26.42;;
20445;SDS011;10382;49.140;9.234;2024-03-07T05:45:01;45.85;;;23.38;;
20445;SDS011;10382;49.140;9.234;2024-03-07T05:47:30;48.78;;;25.73;;
20445;SDS011;10382;49.140;9.234;2024-03-07T05:49:56;49.22;;;26.48;;
20445;SDS011;10382;49.140;9.234;2024-03-07T05:52:23;45.03;;;25.42;;
20445;SDS011;10382;49.140;9.234;2024-03-07T05:54:50;54.83;;;25.55;;
20445;SDS011;10382;49.140;9.234;2024-03-07T05:57:17;43.13;;;24.38;;
20445;SDS011;10382;49.140;9.234;2024-03-07T05:59:44;53.17;;;26.55;;
20445;SDS011;10382;49.140;9.234;2024-03-07T06:02:12;52.58;;;24.48;;
20445;SDS011;10382;49.140;9.234;2024-03-07T06:04:41;41.72;;;24.35;;
20445;SDS011;10382;49.140;9.234;2024-03-07T06:07:09;48.25;;;25.52;;
20445;SDS011;10382;49.140;9.234;2024-03-07T06:09:37;47.35;;;25.25;;
20445;SDS011;10382;49.140;9.234;2024-03-07T06:12:04;45.35;;;25.13;;
20445;SDS011;10382;49.140;9.234;2024-03-07T06:14:33;46.65;;;25.67;;
20445;SDS011;10382;49.140;9.234;2024-03-07T06:17:00;50.40;;;24.20;;
20445;SDS011;10382;49.140;9.234;2024-03-07T06:19:27;40.65;;;23.50;;
20445;SDS011;10382;49.140;9.234;2024-03-07T06:21:57;39.90;;;24.88;;
20445;SDS011;10382;49.140;9.234;2024-03-07T06:24:24;57.08;;;28.65;;
20445;SDS011;10382;49.140;9.234;2024-03-07T06:26:55;63.42;;;30.42;;
20445;SDS011;10382;49.140;9.234;2024-03-07T06:29:26;70.20;;;35.00;;
20445;SDS011;10382;49.140;9.234;2024-03-07T06:31:54;56.22;;;28.88;;
20445;SDS011;10382;49.140;9.234;2024-03-07T06:34:22;66.05;;;32.95;;
20445;SDS011;10382;49.140;9.234;2024-03-07T06:36:49;71.78;;;31.35;;
20445;SDS011;10382;49.140;9.234;2024-03-07T06:39:18;49.38;;;26.30;;
20445;SDS011;10382;49.140;9.234;2024-03-07T06:41:47;48.72;;;26.58;;
20445;SDS011;10382;49.140;9.234;2024-03-07T06:44:13;54.83;;;27.50;;
20445;SDS011;10382;49.140;9.234;2024-03-07T06:46:42;65.15;;;31.52;;
20445;SDS011;10382;49.140;9.234;2024-03-07T06:49:10;51.03;;;27.55;;
20445;SDS011;10382;49.140;9.234;2024-03-07T06:51:37;64.57;;;32.03;;
20445;SDS011;10382;49.140;9.234;2024-03-07T06:54:04;60.55;;;30.48;;
20445;SDS011;10382;49.140;9.234;2024-03-07T06:56:33;61.90;;;30.00;;
20445;SDS011;10382;49.140;9.234;2024-03-07T06:59:00;59.33;;;30.10;;
20445;SDS011;10382;49.140;9.234;2024-03-07T07:01:29;53.40;;;28.08;;
20445;SDS011;10382;49.140;9.234;2024-03-07T07:03:56;52.75;;;27.05;;
20445;SDS011;10382;49.140;9.234;2024-03-07T07:06:23;49.58;;;28.30;;
20445;SDS011;10382;49.140;9.234;2024-03-07T07:08:53;56.40;;;30.10;;
20445;SDS011;10382;49.140;9.234;2024-03-07T07:11:20;46.70;;;28.70;;
20445;SDS011;10382;49.140;9.234;2024-03-07T07:13:48;41.65;;;24.88;;
20445;SDS011;10382;49.140;9.234;2024-03-07T07:16:15;52.08;;;26.77;;
20445;SDS011;10382;49.140;9.234;2024-03-07T07:18:43;55.78;;;29.85;;
20445;SDS011;10382;49.140;9.234;2024-03-07T07:21:10;45.17;;;26.42;;
20445;SDS011;10382;49.140;9.234;2024-03-07T07:23:40;46.45;;;28.48;;
20445;SDS011;10382;49.140;9.234;2024-03-07T07:26:07;47.28;;;26.23;;
20445;SDS011;10382;49.140;9.234;2024-03-07T07:28:34;44.10;;;25.67;;
20445;SDS011;10382;49.140;9.234;2024-03-07T07:31:03;51.80;;;27.55;;
20445;SDS011;10382;49.140;9.234;2024-03-07T07:33:30;40.45;;;25.25;;
20445;SDS011;10382;49.140;9.234;2024-03-07T07:35:57;39.30;;;24.45;;
20445;SDS011;10382;49.140;9.234;2024-03-07T07:38:25;48.70;;;25.00;;
20445;SDS011;10382;49.140;9.234;2024-03-07T07:40:52;42.37;;;25.37;;
20445;SDS011;10382;49.140;9.234;2024-03-07T07:43:19;55.10;;;24.63;;
20445;SDS011;10382;49.140;9.234;2024-03-07T07:45:46;50.10;;;24.20;;
20445;SDS011;10382;49.140;9.234;2024-03-07T07:48:14;44.90;;;24.00;;
20445;SDS011;10382;49.140;9.234;2024-03-07T07:50:41;33.63;;;22.40;;
20445;SDS011;10382;49.140;9.234;2024-03-07T07:53:08;35.67;;;20.93;;
20445;SDS011;10382;49.140;9.234;2024-03-07T07:55:35;37.67;;;20.93;;
20445;SDS011;10382;49.140;9.234;2024-03-07T07:58:03;32.37;;;19.80;;
20445;SDS011;10382;49.140;9.234;2024-03-07T08:00:30;31.77;;;19.83;;
20445;SDS011;10382;49.140;9.234;2024-03-07T08:02:58;28.73;;;19.57;;
20445;SDS011;10382;49.140;9.234;2024-03-07T08:05:28;34.03;;;20.10;;
20445;SDS011;10382;49.140;9.234;2024-03-07T08:07:56;24.93;;;17.37;;
20445;SDS011;10382;49.140;9.234;2024-03-07T08:10:25;32.67;;;19.63;;
20445;SDS011;10382;49.140;9.234;2024-03-07T08:12:54;31.47;;;19.30;;
20445;SDS011;10382;49.140;9.234;2024-03-07T08:15:21;31.07;;;19.53;;
20445;SDS011;10382;49.140;9.234;2024-03-07T08:17:48;31.00;;;18.53;;
20445;SDS011;10382;49.140;9.234;2024-03-07T08:20:17;32.00;;;21.37;;
20445;SDS011;10382;49.140;9.234;2024-03-07T08:22:47;29.70;;;17.60;;
20445;SDS011;10382;49.140;9.234;2024-03-07T08:25:17;33.27;;;20.20;;
20445;SDS011;10382;49.140;9.234;2024-03-07T08:27:46;24.83;;;18.20;;
20445;SDS011;10382;49.140;9.234;2024-03-07T08:30:14;31.93;;;19.03;;
20445;SDS011;10382;49.140;9.234;2024-03-07T08:32:42;31.37;;;19.20;;
20445;SDS011;10382;49.140;9.234;2024-03-07T08:35:10;31.30;;;18.10;;
20445;SDS011;10382;49.140;9.234;2024-03-07T08:37:37;32.20;;;18.60;;
20445;SDS011;10382;49.140;9.234;2024-03-07T08:40:07;33.60;;;18.97;;
20445;SDS011;10382;49.140;9.234;2024-03-07T08:42:36;27.20;;;19.17;;
20445;SDS011;10382;49.140;9.234;2024-03-07T08:45:04;25.57;;;18.00;;
20445;SDS011;10382;49.140;9.234;2024-03-07T08:47:31;27.63;;;17.83;;
20445;SDS011;10382;49.140;9.234;2024-03-07T08:49:59;29.87;;;17.90;;
20445;SDS011;10382;49.140;9.234;2024-03-07T08:52:26;25.70;;;16.87;;
20445;SDS011;10382;49.140;9.234;2024-03-07T08:54:53;28.93;;;17.77;;
20445;SDS011;10382;49.140;9.234;2024-03-07T08:57:22;28.17;;;16.33;;
20445;SDS011;10382;49.140;9.234;2024-03-07T08:59:49;21.57;;;15.63;;
20445;SDS011;10382;49.140;9.234;2024-03-07T09:02:16;25.53;;;18.37;;
20445;SDS011;10382;49.140;9.234;2024-03-07T09:04:43;30.90;;;17.93;;
20445;SDS011;10382;49.140;9.234;2024-03-07T09:07:10;24.30;;;16.40;;
20445;SDS011;10382;49.140;9.234;2024-03-07T09:09:38;23.33;;;16.63;;
20445;SDS011;10382;49.140;9.234;2024-03-07T09:12:05;25.10;;;15.80;;
20445;SDS011;10382;49.140;9.234;2024-03-07T09:14:34;23.70;;;15.50;;
20445;SDS011;10382;49.140;9.234;2024-03-07T09:17:02;22.57;;;15.63;;
20445;SDS011;10382;49.140;9.234;2024-03-07T09:19:30;31.77;;;15.40;;
20445;SDS011;10382;49.140;9.234;2024-03-07T09:21:57;26.60;;;15.97;;
20445;SDS011;10382;49.140;9.234;2024-03-07T09:24:25;24.63;;;16.63;;
20445;SDS011;10382;49.140;9.234;2024-03-07T09:26:53;31.33;;;16.13;;
20445;SDS011;10382;49.140;9.234;2024-03-07T09:29:21;28.03;;;17.77;;
20445;SDS011;10382;49.140;9.234;2024-03-07T09:31:50;24.43;;;15.27;;
20445;SDS011;10382;49.140;9.234;2024-03-07T09:34:18;26.03;;;15.67;;
20445;SDS011;10382;49.140;9.234;2024-03-07T09:36:46;24.93;;;16.47;;
20445;SDS011;10382;49.140;9.234;2024-03-07T09:39:14;29.67;;;16.13;;
20445;SDS011;10382;49.140;9.234;2024-03-07T09:41:41;24.47;;;16.77;;
20445;SDS011;10382;49.140;9.234;2024-03-07T09:44:08;27.57;;;17.20;;
20445;SDS011;10382;49.140;9.234;2024-03-07T09:46:36;27.70;;;16.87;;
20445;SDS011;10382;49.140;9.234;2024-03-07T09:49:05;26.23;;;18.60;;
20445;SDS011;10382;49.140;9.234;2024-03-07T09:51:35;20.97;;;16.73;;
20445;SDS011;10382;49.140;9.234;2024-03-07T09:54:02;27.40;;;17.03;;
20445;SDS011;10382;49.140;9.234;2024-03-07T09:56:30;28.70;;;18.73;;
20445;SDS011;10382;49.140;9.234;2024-03-07T09:58:58;27.07;;;17.47;;
20445;SDS011;10382;49.140;9.234;2024-03-07T10:01:27;30.17;;;18.40;;
20445;SDS011;10382;49.140;9.234;2024-03-07T10:03:57;24.10;;;16.90;;
20445;SDS011;10382;49.140;9.234;2024-03-07T10:06:36;26.90;;;18.63;;
20445;SDS011;10382;49.140;9.234;2024-03-07T10:09:03;21.37;;;16.53;;
20445;SDS011;10382;49.140;9.234;2024-03-07T10:11:31;21.67;;;17.10;;
20445;SDS011;10382;49.140;9.234;2024-03-07T10:13:59;24.10;;;17.90;;
20445;SDS011;10382;49.140;9.234;2024-03-07T10:16:28;24.73;;;17.83;;
20445;SDS011;10382;49.140;9.234;2024-03-07T10:18:55;26.47;;;18.80;;
20445;SDS011;10382;49.140;9.234;2024-03-07T10:21:22;21.87;;;17.77;;
20445;SDS011;10382;49.140;9.234;2024-03-07T10:23:53;25.20;;;19.00;;
20445;SDS011;10382;49.140;9.234;2024-03-07T10:26:32;23.17;;;17.17;;
20445;SDS011;10382;49.140;9.234;2024-03-07T10:29:00;25.10;;;19.33;;
20445;SDS011;10382;49.140;9.234;2024-03-07T10:31:28;26.63;;;18.03;;
20445;SDS011;10382;49.140;9.234;2024-03-07T10:33:57;26.60;;;19.60;;
20445;SDS011;10382;49.140;9.234;2024-03-07T10:36:25;27.93;;;19.03;;
20445;SDS011;10382;49.140;9.234;2024-03-07T10:38:57;22.43;;;17.27;;
20445;SDS011;10382;49.140;9.234;2024-03-07T10:41:36;22.20;;;15.80;;
20445;SDS011;10382;49.140;9.234;2024-03-07T10:44:15;30.60;;;17.20;;
20445;SDS011;10382;49.140;9.234;2024-03-07T10:46:50;32.17;;;19.47;;
20445;SDS011;10382;49.140;9.234;2024-03-07T10:49:19;27.47;;;18.60;;
20445;SDS011;10382;49.140;9.234;2024-03-07T10:51:51;24.83;;;19.17;;
20445;SDS011;10382;49.140;9.234;2024-03-07T10:54:28;29.07;;;19.00;;
20445;SDS011;10382;49.140;9.234;2024-03-07T10:57:05;32.50;;;21.50;;
20445;SDS011;10382;49.140;9.234;2024-03-07T10:59:42;28.27;;;21.20;;
20445;SDS011;10382;49.140;9.234;2024-03-07T11:02:17;31.13;;;20.40;;
20445;SDS011;10382;49.140;9.234;2024-03-07T11:04:52;30.30;;;19.20;;
20445;SDS011;10382;49.140;9.234;2024-03-07T11:07:20;26.00;;;18.90;;
20445;SDS011;10382;49.140;9.234;2024-03-07T11:09:50;29.13;;;19.20;;
20445;SDS011;10382;49.140;9.234;2024-03-07T11:12:20;29.53;;;20.30;;
20445;SDS011;10382;49.140;9.234;2024-03-07T11:14:50;23.80;;;18.87;;
20445;SDS011;10382;49.140;9.234;2024-03-07T11:17:18;24.90;;;20.80;;
20445;SDS011;10382;49.140;9.234;2024-03-07T11:19:46;27.30;;;20.27;;
20445;SDS011;10382;49.140;9.234;2024-03-07T11:22:28;29.50;;;19.07;;
20445;SDS011;10382;49.140;9.234;2024-03-07T11:25:03;26.53;;;20.40;;
20445;SDS011;10382;49.140;9.234;2024-03-07T11:27:33;25.90;;;20.17;;
20445;SDS011;10382;49.140;9.234;2024-03-07T11:30:07;25.57;;;18.77;;
20445;SDS011;10382;49.140;9.234;2024-03-07T11:32:34;25.07;;;19.23;;
20445;SDS011;10382;49.140;9.234;2024-03-07T11:35:04;30.97;;;21.00;;
20445;SDS011;10382;49.140;9.234;2024-03-07T11:37:39;27.23;;;17.53;;
20445;SDS011;10382;49.140;9.234;2024-03-07T11:40:11;27.13;;;20.73;;
20445;SDS011;10382;49.140;9.234;2024-03-07T11:42:43;33.00;;;21.37;;
20445;SDS011;10382;49.140;9.234;2024-03-07T11:45:13;29.70;;;19.57;;
20445;SDS011;10382;49.140;9.234;2024-03-07T11:47:50;24.00;;;17.73;;
20445;SDS011;10382;49.140;9.234;2024-03-07T11:50:22;27.20;;;20.87;;
20445;SDS011;10382;49.140;9.234;2024-03-07T11:52:50;33.77;;;20.60;;
20445;SDS011;10382;49.140;9.234;2024-03-07T11:55:21;32.17;;;21.10;;
20445;SDS011;10382;49.140;9.234;2024-03-07T11:57:48;27.80;;;20.30;;
20445;SDS011;10382;49.140;9.234;2024-03-07T12:00:16;29.40;;;20.00;;
20445;SDS011;10382;49.140;9.234;2024-03-07T12:02:44;30.50;;;19.73;;
20445;SDS011;10382;49.140;9.234;2024-03-07T12:05:13;38.77;;;21.70;;
20445;SDS011;10382;49.140;9.234;2024-03-07T12:07:41;28.30;;;17.50;;
20445;SDS011;10382;49.140;9.234;2024-03-07T12:10:09;34.20;;;20.27;;
20445;SDS011;10382;49.140;9.234;2024-03-07T12:12:37;31.73;;;22.37;;
20445;SDS011;10382;49.140;9.234;2024-03-07T12:15:05;26.40;;;19.70;;
20445;SDS011;10382;49.140;9.234;2024-03-07T12:17:40;29.33;;;21.93;;
20445;SDS011;10382;49.140;9.234;2024-03-07T12:20:08;29.90;;;21.60;;
20445;SDS011;10382;49.140;9.234;2024-03-07T12:22:49;34.77;;;19.27;;
20445;SDS011;10382;49.140;9.234;2024-03-07T12:25:18;28.73;;;20.70;;
20445;SDS011;10382;49.140;9.234;2024-03-07T12:27:48;28.80;;;18.73;;
20445;SDS011;10382;49.140;9.234;2024-03-07T12:30:28;27.50;;;19.50;;
20445;SDS011;10382;49.140;9.234;2024-03-07T12:32:58;30.60;;;19.63;;
20445;SDS011;10382;49.140;9.234;2024-03-07T12:35:25;35.33;;;18.10;;
20445;SDS011;10382;49.140;9.234;2024-03-07T12:37:52;26.03;;;19.20;;
20445;SDS011;10382;49.140;9.234;2024-03-07T12:40:21;29.20;;;19.40;;
20445;SDS011;10382;49.140;9.234;2024-03-07T12:42:51;30.50;;;20.43;;
20445;SDS011;10382;49.140;9.234;2024-03-07T12:45:19;28.90;;;19.67;;
20445;SDS011;10382;49.140;9.234;2024-03-07T12:47:46;24.53;;;17.23;;
20445;SDS011;10382;49.140;9.234;2024-03-07T12:50:16;29.73;;;19.33;;
20445;SDS011;10382;49.140;9.234;2024-03-07T12:52:45;30.10;;;16.80;;
20445;SDS011;10382;49.140;9.234;2024-03-07T12:55:14;26.47;;;18.30;;
20445;SDS011;10382;49.140;9.234;2024-03-07T12:57:46;23.53;;;16.73;;
20445;SDS011;10382;49.140;9.234;2024-03-07T13:00:17;34.13;;;16.73;;
20445;SDS011;10382;49.140;9.234;2024-03-07T13:02:48;22.10;;;14.77;;
20445;SDS011;10382;49.140;9.234;2024-03-07T13:05:16;24.40;;;16.63;;
20445;SDS011;10382;49.140;9.234;2024-03-07T13:07:47;30.53;;;18.43;;
20445;SDS011;10382;49.140;9.234;2024-03-07T13:10:14;34.43;;;17.23;;
20445;SDS011;10382;49.140;9.234;2024-03-07T13:12:43;22.90;;;15.43;;
20445;SDS011;10382;49.140;9.234;2024-03-07T13:15:11;26.70;;;18.17;;
20445;SDS011;10382;49.140;9.234;2024-03-07T13:17:39;25.93;;;17.60;;
20445;SDS011;10382;49.140;9.234;2024-03-07T13:20:08;27.00;;;16.93;;
20445;SDS011;10382;49.140;9.234;2024-03-07T13:22:38;28.67;;;17.80;;
20445;SDS011;10382;49.140;9.234;2024-03-07T13:25:07;24.60;;;17.83;;
20445;SDS011;10382;49.140;9.234;2024-03-07T13:27:39;27.50;;;17.87;;
20445;SDS011;10382;49.140;9.234;2024-03-07T13:30:09;31.17;;;18.60;;
20445;SDS011;10382;49.140;9.234;2024-03-07T13:32:50;28.30;;;17.57;;
20445;SDS011;10382;49.140;9.234;2024-03-07T13:35:20;24.60;;;18.00;;
20445;SDS011;10382;49.140;9.234;2024-03-07T13:37:47;26.30;;;16.70;;
20445;SDS011;10382;49.140;9.234;2024-03-07T13:40:15;25.70;;;17.97;;
20445;SDS011;10382;49.140;9.234;2024-03-07T13:42:52;26.77;;;18.03;;
20445;SDS011;10382;49.140;9.234;2024-03-07T13:45:20;26.33;;;18.73;;
20445;SDS011;10382;49.140;9.234;2024-03-07T13:47:49;26.03;;;17.83;;
20445;SDS011;10382;49.140;9.234;2024-03-07T13:50:19;31.67;;;17.73;;
20445;SDS011;10382;49.140;9.234;2024-03-07T13:52:49;26.90;;;18.80;;
20445;SDS011;10382;49.140;9.234;2024-03-07T13:55:41;22.30;;;16.10;;
20445;SDS011;10382;49.140;9.234;2024-03-07T13:58:18;23.83;;;16.13;;
20445;SDS011;10382;49.140;9.234;2024-03-07T14:00:57;27.70;;;16.20;;
20445;SDS011;10382;49.140;9.234;2024-03-07T14:03:51;26.47;;;14.43;;
20445;SDS011;10382;49.140;9.234;2024-03-07T14:07:05;21.50;;;15.70;;
20445;SDS011;10382;49.140;9.234;2024-03-07T14:09:56;25.83;;;17.70;;
20445;SDS011;10382;49.140;9.234;2024-03-07T14:12:54;23.23;;;16.70;;
20445;SDS011;10382;49.140;9.234;2024-03-07T14:15:54;25.30;;;16.20;;
20445;SDS011;10382;49.140;9.234;2024-03-07T14:21:50;29.77;;;18.60;;
20445;SDS011;10382;49.140;9.234;2024-03-07T14:24:35;27.53;;;18.03;;
20445;SDS011;10382;49.140;9.234;2024-03-07T14:27:27;23.83;;;16.60;;
20445;SDS011;10382;49.140;9.234;2024-03-07T14:30:05;25.53;;;17.63;;
20445;SDS011;10382;49.140;9.234;2024-03-07T14:32:56;27.47;;;17.40;;
20445;SDS011;10382;49.140;9.234;2024-03-07T14:35:30;29.23;;;17.93;;